sensor_id;sensor_type;location;lat;lon;timestamp;P1;durP1;ratioP1;P2;durP2;ratioP2
57667;SDS011;43499;52.366;12.912;2023-02-28T00:00:55;16.05;;;8.07;;
57667;SDS011;43499;52.366;12.912;2023-02-28T00:01:56;15.30;;;6.88;;
57667;SDS011;43499;52.366;12.912;2023-02-28T00:02:58;18.15;;;9.00;;
57667;SDS011;43499;52.366;12.912;2023-02-28T00:03:59;11.82;;;7.45;;
57667;SDS011;43499;52.366;12.912;2023-02-28T00:05:00;14.43;;;8.07;;
57667;SDS011;43499;52.366;12.912;2023-02-28T00:06:04;11.15;;;7.03;;
57667;SDS011;43499;52.366;12.912;2023-02-28T00:07:07;12.90;;;7.93;;
57667;SDS011;43499;52.366;12.912;2023-02-28T00:08:08;12.52;;;7.95;;
57667;SDS011;43499;52.366;12.912;2023-02-28T00:09:10;18.13;;;7.60;;
57667;SDS011;43499;52.366;12.912;2023-02-28T00:10:12;13.73;;;7.90;;
57667;SDS011;43499;52.366;12.912;2023-02-28T00:11:15;14.35;;;7.85;;
57667;SDS011;43499;52.366;12.912;2023-02-28T00:12:17;13.10;;;7.63;;
57667;SDS011;43499;52.366;12.912;2023-02-28T00:13:18;14.98;;;7.68;;
57667;SDS011;43499;52.366;12.912;2023-02-28T00:14:19;14.82;;;8.65;;
57667;SDS011;43499;52.366;12.912;2023-02-28T00:15:20;11.95;;;6.75;;
57667;SDS011;43499;52.366;12.912;2023-02-28T00:16:22;15.27;;;8.00;;
57667;SDS011;43499;52.366;12.912;2023-02-28T00:17:23;13.85;;;7.80;;
57667;SDS011;43499;52.366;12.912;2023-02-28T00:18:24;11.77;;;7.32;;
57667;SDS011;43499;52.366;12.912;2023-02-28T00:19:25;14.65;;;7.60;;
57667;SDS011;43499;52.366;12.912;2023-02-28T00:20:26;12.70;;;7.15;;
57667;SDS011;43499;52.366;12.912;2023-02-28T00:21:27;13.70;;;6.90;;
57667;SDS011;43499;52.366;12.912;2023-02-28T00:22:28;13.20;;;7.93;;
57667;SDS011;43499;52.366;12.912;2023-02-28T00:23:29;11.07;;;6.70;;
57667;SDS011;43499;52.366;12.912;2023-02-28T00:24:30;12.40;;;7.47;;
57667;SDS011;43499;52.366;12.912;2023-02-28T00:25:31;12.85;;;7.20;;
57667;SDS011;43499;52.366;12.912;2023-02-28T00:26:32;13.23;;;7.28;;
57667;SDS011;43499;52.366;12.912;2023-02-28T00:27:34;10.95;;;6.57;;
57667;SDS011;43499;52.366;12.912;2023-02-28T00:28:38;12.00;;;7.40;;
57667;SDS011;43499;52.366;12.912;2023-02-28T00:29:39;15.50;;;6.95;;
57667;SDS011;43499;52.366;12.912;2023-02-28T00:30:40;12.98;;;7.32;;
57667;SDS011;43499;52.366;12.912;2023-02-28T00:31:42;9.93;;;6.97;;
57667;SDS011;43499;52.366;12.912;2023-02-28T00:32:45;13.98;;;6.97;;
57667;SDS011;43499;52.366;12.912;2023-02-28T00:33:46;12.68;;;7.47;;
57667;SDS011;43499;52.366;12.912;2023-02-28T00:34:49;14.27;;;7.50;;
57667;SDS011;43499;52.366;12.912;2023-02-28T00:35:50;10.40;;;7.43;;
57667;SDS011;43499;52.366;12.912;2023-02-28T00:36:52;13.27;;;7.40;;
57667;SDS011;43499;52.366;12.912;2023-02-28T00:37:53;14.10;;;7.03;;
57667;SDS011;43499;52.366;12.912;2023-02-28T00:38:54;15.18;;;7.78;;
57667;SDS011;43499;52.366;12.912;2023-02-28T00:39:55;12.60;;;7.03;;
57667;SDS011;43499;52.366;12.912;2023-02-28T00:40:57;11.82;;;7.70;;
57667;SDS011;43499;52.366;12.912;2023-02-28T00:41:59;11.60;;;7.65;;
57667;SDS011;43499;52.366;12.912;2023-02-28T00:43:00;11.35;;;6.80;;
57667;SDS011;43499;52.366;12.912;2023-02-28T00:44:01;14.20;;;7.05;;
57667;SDS011;43499;52.366;12.912;2023-02-28T00:45:03;17.45;;;7.07;;
57667;SDS011;43499;52.366;12.912;2023-02-28T00:46:05;13.95;;;7.30;;
57667;SDS011;43499;52.366;12.912;2023-02-28T00:47:07;12.18;;;7.72;;
57667;SDS011;43499;52.366;12.912;2023-02-28T00:48:08;11.75;;;7.38;;
57667;SDS011;43499;52.366;12.912;2023-02-28T00:49:09;15.27;;;7.05;;
57667;SDS011;43499;52.366;12.912;2023-02-28T00:50:10;12.75;;;7.35;;
57667;SDS011;43499;52.366;12.912;2023-02-28T00:51:11;10.60;;;6.80;;
57667;SDS011;43499;52.366;12.912;2023-02-28T00:52:12;13.57;;;7.65;;
57667;SDS011;43499;52.366;12.912;2023-02-28T00:53:14;15.43;;;8.02;;
57667;SDS011;43499;52.366;12.912;2023-02-28T00:54:15;11.65;;;7.28;;
57667;SDS011;43499;52.366;12.912;2023-02-28T00:55:21;12.95;;;7.38;;
57667;SDS011;43499;52.366;12.912;2023-02-28T00:56:22;14.95;;;7.70;;
57667;SDS011;43499;52.366;12.912;2023-02-28T00:57:23;12.45;;;7.20;;
57667;SDS011;43499;52.366;12.912;2023-02-28T00:58:24;12.02;;;7.50;;
57667;SDS011;43499;52.366;12.912;2023-02-28T00:59:25;13.43;;;7.53;;
57667;SDS011;43499;52.366;12.912;2023-02-28T01:00:26;14.75;;;7.35;;
57667;SDS011;43499;52.366;12.912;2023-02-28T01:01:27;12.60;;;7.40;;
57667;SDS011;43499;52.366;12.912;2023-02-28T01:02:29;17.48;;;7.28;;
57667;SDS011;43499;52.366;12.912;2023-02-28T01:03:30;13.68;;;7.25;;
57667;SDS011;43499;52.366;12.912;2023-02-28T01:04:31;12.27;;;7.10;;
57667;SDS011;43499;52.366;12.912;2023-02-28T01:05:35;12.23;;;7.07;;
57667;SDS011;43499;52.366;12.912;2023-02-28T01:06:36;10.90;;;7.00;;
57667;SDS011;43499;52.366;12.912;2023-02-28T01:07:37;15.02;;;7.65;;
57667;SDS011;43499;52.366;12.912;2023-02-28T01:08:39;15.00;;;7.20;;
57667;SDS011;43499;52.366;12.912;2023-02-28T01:09:40;15.52;;;7.05;;
57667;SDS011;43499;52.366;12.912;2023-02-28T01:10:42;12.10;;;7.28;;
57667;SDS011;43499;52.366;12.912;2023-02-28T01:11:43;11.00;;;6.78;;
57667;SDS011;43499;52.366;12.912;2023-02-28T01:12:44;14.73;;;7.47;;
57667;SDS011;43499;52.366;12.912;2023-02-28T01:13:46;11.55;;;7.38;;
57667;SDS011;43499;52.366;12.912;2023-02-28T01:14:47;13.15;;;6.90;;
57667;SDS011;43499;52.366;12.912;2023-02-28T01:15:52;12.85;;;7.30;;
57667;SDS011;43499;52.366;12.912;2023-02-28T01:16:56;11.77;;;7.22;;
57667;SDS011;43499;52.366;12.912;2023-02-28T01:17:59;16.13;;;7.70;;
57667;SDS011;43499;52.366;12.912;2023-02-28T01:19:00;13.80;;;6.93;;
57667;SDS011;43499;52.366;12.912;2023-02-28T01:20:01;14.77;;;7.65;;
57667;SDS011;43499;52.366;12.912;2023-02-28T01:21:04;13.40;;;6.93;;
57667;SDS011;43499;52.366;12.912;2023-02-28T01:22:06;13.60;;;7.28;;
57667;SDS011;43499;52.366;12.912;2023-02-28T01:23:09;13.38;;;7.70;;
57667;SDS011;43499;52.366;12.912;2023-02-28T01:24:10;11.38;;;6.40;;
57667;SDS011;43499;52.366;12.912;2023-02-28T01:25:11;12.85;;;6.85;;
57667;SDS011;43499;52.366;12.912;2023-02-28T01:26:13;12.63;;;6.85;;
57667;SDS011;43499;52.366;12.912;2023-02-28T01:27:16;11.95;;;6.35;;
57667;SDS011;43499;52.366;12.912;2023-02-28T01:28:17;10.85;;;6.50;;
57667;SDS011;43499;52.366;12.912;2023-02-28T01:29:18;12.27;;;6.93;;
57667;SDS011;43499;52.366;12.912;2023-02-28T01:30:20;12.20;;;7.13;;
57667;SDS011;43499;52.366;12.912;2023-02-28T01:31:21;11.82;;;7.10;;
57667;SDS011;43499;52.366;12.912;2023-02-28T01:32:23;16.55;;;6.75;;
57667;SDS011;43499;52.366;12.912;2023-02-28T01:33:24;11.25;;;6.47;;
57667;SDS011;43499;52.366;12.912;2023-02-28T01:34:27;13.77;;;7.07;;
57667;SDS011;43499;52.366;12.912;2023-02-28T01:35:28;15.05;;;6.78;;
57667;SDS011;43499;52.366;12.912;2023-02-28T01:36:29;13.55;;;7.15;;
57667;SDS011;43499;52.366;12.912;2023-02-28T01:37:30;10.85;;;6.38;;
57667;SDS011;43499;52.366;12.912;2023-02-28T01:38:32;17.05;;;7.05;;
57667;SDS011;43499;52.366;12.912;2023-02-28T01:39:34;12.05;;;7.30;;
57667;SDS011;43499;52.366;12.912;2023-02-28T01:40:35;14.52;;;7.03;;
57667;SDS011;43499;52.366;12.912;2023-02-28T01:41:36;10.90;;;6.60;;
57667;SDS011;43499;52.366;12.912;2023-02-28T01:42:37;12.25;;;6.57;;
57667;SDS011;43499;52.366;12.912;2023-02-28T01:46:18;12.70;;;7.18;;
57667;SDS011;43499;52.366;12.912;2023-02-28T01:47:19;10.23;;;6.50;;
57667;SDS011;43499;52.366;12.912;2023-02-28T01:48:40;12.15;;;7.40;;
57667;SDS011;43499;52.366;12.912;2023-02-28T01:49:47;12.55;;;6.93;;
57667;SDS011;43499;52.366;12.912;2023-02-28T01:50:49;15.32;;;7.63;;
57667;SDS011;43499;52.366;12.912;2023-02-28T01:51:51;10.95;;;6.22;;
57667;SDS011;43499;52.366;12.912;2023-02-28T01:52:58;15.35;;;6.68;;
57667;SDS011;43499;52.366;12.912;2023-02-28T01:54:03;12.60;;;7.50;;
57667;SDS011;43499;52.366;12.912;2023-02-28T01:55:14;9.55;;;6.50;;
57667;SDS011;43499;52.366;12.912;2023-02-28T01:56:20;11.50;;;6.60;;
57667;SDS011;43499;52.366;12.912;2023-02-28T01:57:28;15.52;;;7.13;;
57667;SDS011;43499;52.366;12.912;2023-02-28T01:58:38;15.80;;;6.78;;
57667;SDS011;43499;52.366;12.912;2023-02-28T01:59:59;9.70;;;6.57;;
57667;SDS011;43499;52.366;12.912;2023-02-28T02:01:13;12.30;;;6.72;;
57667;SDS011;43499;52.366;12.912;2023-02-28T02:02:22;13.13;;;6.75;;
57667;SDS011;43499;52.366;12.912;2023-02-28T02:03:24;14.05;;;7.32;;
57667;SDS011;43499;52.366;12.912;2023-02-28T02:04:26;11.00;;;6.80;;
57667;SDS011;43499;52.366;12.912;2023-02-28T02:05:34;11.05;;;7.13;;
57667;SDS011;43499;52.366;12.912;2023-02-28T02:06:40;18.30;;;7.72;;
57667;SDS011;43499;52.366;12.912;2023-02-28T02:07:49;11.40;;;7.10;;
57667;SDS011;43499;52.366;12.912;2023-02-28T02:09:17;11.98;;;7.07;;
57667;SDS011;43499;52.366;12.912;2023-02-28T02:10:20;16.30;;;7.47;;
57667;SDS011;43499;52.366;12.912;2023-02-28T02:11:25;17.10;;;7.30;;
57667;SDS011;43499;52.366;12.912;2023-02-28T02:15:09;13.40;;;7.60;;
57667;SDS011;43499;52.366;12.912;2023-02-28T02:16:20;13.10;;;6.90;;
57667;SDS011;43499;52.366;12.912;2023-02-28T02:17:35;14.30;;;7.38;;
57667;SDS011;43499;52.366;12.912;2023-02-28T02:18:43;11.75;;;6.80;;
57667;SDS011;43499;52.366;12.912;2023-02-28T02:23:08;11.68;;;7.00;;
57667;SDS011;43499;52.366;12.912;2023-02-28T02:24:44;13.05;;;6.80;;
57667;SDS011;43499;52.366;12.912;2023-02-28T02:25:52;12.88;;;7.15;;
57667;SDS011;43499;52.366;12.912;2023-02-28T02:31:14;16.70;;;8.13;;
57667;SDS011;43499;52.366;12.912;2023-02-28T02:32:28;12.48;;;7.53;;
57667;SDS011;43499;52.366;12.912;2023-02-28T02:33:45;16.58;;;7.78;;
57667;SDS011;43499;52.366;12.912;2023-02-28T02:36:26;12.60;;;7.68;;
57667;SDS011;43499;52.366;12.912;2023-02-28T02:37:38;15.75;;;7.43;;
57667;SDS011;43499;52.366;12.912;2023-02-28T02:38:52;15.00;;;7.82;;
57667;SDS011;43499;52.366;12.912;2023-02-28T02:40:04;15.02;;;7.80;;
57667;SDS011;43499;52.366;12.912;2023-02-28T02:41:18;16.23;;;7.82;;
57667;SDS011;43499;52.366;12.912;2023-02-28T02:43:39;17.00;;;8.35;;
57667;SDS011;43499;52.366;12.912;2023-02-28T02:44:59;16.88;;;8.57;;
57667;SDS011;43499;52.366;12.912;2023-02-28T02:46:04;13.30;;;7.85;;
57667;SDS011;43499;52.366;12.912;2023-02-28T02:47:19;13.13;;;7.80;;
57667;SDS011;43499;52.366;12.912;2023-02-28T02:48:26;15.02;;;8.55;;
57667;SDS011;43499;52.366;12.912;2023-02-28T02:49:32;15.30;;;7.97;;
57667;SDS011;43499;52.366;12.912;2023-02-28T02:50:37;14.82;;;8.18;;
57667;SDS011;43499;52.366;12.912;2023-02-28T02:51:43;15.00;;;8.75;;
57667;SDS011;43499;52.366;12.912;2023-02-28T02:52:49;17.73;;;8.60;;
57667;SDS011;43499;52.366;12.912;2023-02-28T02:53:57;15.55;;;8.63;;
57667;SDS011;43499;52.366;12.912;2023-02-28T02:55:07;16.23;;;8.15;;
57667;SDS011;43499;52.366;12.912;2023-02-28T02:56:12;15.80;;;8.38;;
57667;SDS011;43499;52.366;12.912;2023-02-28T02:57:17;17.33;;;8.60;;
57667;SDS011;43499;52.366;12.912;2023-02-28T02:58:24;17.13;;;8.88;;
57667;SDS011;43499;52.366;12.912;2023-02-28T02:59:30;14.95;;;8.52;;
57667;SDS011;43499;52.366;12.912;2023-02-28T03:00:34;15.38;;;8.30;;
57667;SDS011;43499;52.366;12.912;2023-02-28T03:01:40;15.35;;;8.25;;
57667;SDS011;43499;52.366;12.912;2023-02-28T03:02:42;16.58;;;8.88;;
57667;SDS011;43499;52.366;12.912;2023-02-28T03:03:45;16.63;;;8.55;;
57667;SDS011;43499;52.366;12.912;2023-02-28T03:04:53;17.40;;;9.02;;
57667;SDS011;43499;52.366;12.912;2023-02-28T03:06:01;16.60;;;8.45;;
57667;SDS011;43499;52.366;12.912;2023-02-28T03:07:04;14.50;;;7.90;;
57667;SDS011;43499;52.366;12.912;2023-02-28T03:08:06;18.63;;;8.98;;
57667;SDS011;43499;52.366;12.912;2023-02-28T03:09:07;16.48;;;9.65;;
57667;SDS011;43499;52.366;12.912;2023-02-28T03:11:46;11.98;;;7.78;;
57667;SDS011;43499;52.366;12.912;2023-02-28T03:12:51;13.00;;;8.30;;
57667;SDS011;43499;52.366;12.912;2023-02-28T03:14:13;14.40;;;8.50;;
57667;SDS011;43499;52.366;12.912;2023-02-28T03:15:33;25.58;;;9.15;;
57667;SDS011;43499;52.366;12.912;2023-02-28T03:16:55;13.00;;;8.43;;
57667;SDS011;43499;52.366;12.912;2023-02-28T03:18:16;12.93;;;7.85;;
57667;SDS011;43499;52.366;12.912;2023-02-28T03:19:45;15.97;;;8.67;;
57667;SDS011;43499;52.366;12.912;2023-02-28T03:20:59;17.02;;;8.65;;
57667;SDS011;43499;52.366;12.912;2023-02-28T03:23:45;17.63;;;9.18;;
57667;SDS011;43499;52.366;12.912;2023-02-28T03:25:06;13.15;;;7.97;;
57667;SDS011;43499;52.366;12.912;2023-02-28T03:26:20;16.80;;;8.88;;
57667;SDS011;43499;52.366;12.912;2023-02-28T03:27:28;17.65;;;8.52;;
57667;SDS011;43499;52.366;12.912;2023-02-28T03:28:35;16.45;;;9.18;;
57667;SDS011;43499;52.366;12.912;2023-02-28T03:29:58;15.00;;;8.70;;
57667;SDS011;43499;52.366;12.912;2023-02-28T03:31:16;15.43;;;8.95;;
57667;SDS011;43499;52.366;12.912;2023-02-28T03:32:29;18.50;;;9.20;;
57667;SDS011;43499;52.366;12.912;2023-02-28T03:33:38;17.80;;;8.35;;
57667;SDS011;43499;52.366;12.912;2023-02-28T03:35:02;17.30;;;8.10;;
57667;SDS011;43499;52.366;12.912;2023-02-28T03:36:16;18.45;;;8.52;;
57667;SDS011;43499;52.366;12.912;2023-02-28T03:37:20;18.23;;;8.68;;
57667;SDS011;43499;52.366;12.912;2023-02-28T03:38:29;13.27;;;8.68;;
57667;SDS011;43499;52.366;12.912;2023-02-28T03:39:43;16.35;;;8.93;;
57667;SDS011;43499;52.366;12.912;2023-02-28T03:40:51;19.27;;;9.10;;
57667;SDS011;43499;52.366;12.912;2023-02-28T03:42:00;20.40;;;9.77;;
57667;SDS011;43499;52.366;12.912;2023-02-28T03:43:08;18.10;;;9.27;;
57667;SDS011;43499;52.366;12.912;2023-02-28T03:44:18;14.95;;;8.50;;
57667;SDS011;43499;52.366;12.912;2023-02-28T03:45:28;17.15;;;8.40;;
57667;SDS011;43499;52.366;12.912;2023-02-28T03:46:32;19.02;;;9.02;;
57667;SDS011;43499;52.366;12.912;2023-02-28T03:47:39;16.85;;;8.98;;
57667;SDS011;43499;52.366;12.912;2023-02-28T03:48:47;16.80;;;8.65;;
57667;SDS011;43499;52.366;12.912;2023-02-28T03:50:00;15.20;;;10.13;;
57667;SDS011;43499;52.366;12.912;2023-02-28T03:51:07;19.48;;;9.50;;
57667;SDS011;43499;52.366;12.912;2023-02-28T03:52:11;18.45;;;9.68;;
57667;SDS011;43499;52.366;12.912;2023-02-28T03:53:14;15.93;;;8.35;;
57667;SDS011;43499;52.366;12.912;2023-02-28T03:54:21;18.33;;;8.98;;
57667;SDS011;43499;52.366;12.912;2023-02-28T03:55:25;20.23;;;9.57;;
57667;SDS011;43499;52.366;12.912;2023-02-28T03:56:40;17.98;;;9.60;;
57667;SDS011;43499;52.366;12.912;2023-02-28T03:59:02;21.58;;;9.88;;
57667;SDS011;43499;52.366;12.912;2023-02-28T04:00:14;18.17;;;9.80;;
57667;SDS011;43499;52.366;12.912;2023-02-28T04:01:39;20.70;;;10.57;;
57667;SDS011;43499;52.366;12.912;2023-02-28T04:02:42;18.05;;;9.85;;
57667;SDS011;43499;52.366;12.912;2023-02-28T04:03:43;19.10;;;10.25;;
57667;SDS011;43499;52.366;12.912;2023-02-28T04:04:44;23.63;;;11.27;;
57667;SDS011;43499;52.366;12.912;2023-02-28T04:05:50;27.15;;;10.93;;
57667;SDS011;43499;52.366;12.912;2023-02-28T04:06:53;21.40;;;11.32;;
57667;SDS011;43499;52.366;12.912;2023-02-28T04:08:06;17.90;;;9.85;;
57667;SDS011;43499;52.366;12.912;2023-02-28T04:09:11;23.77;;;11.25;;
57667;SDS011;43499;52.366;12.912;2023-02-28T04:10:15;18.77;;;9.23;;
57667;SDS011;43499;52.366;12.912;2023-02-28T04:11:18;16.13;;;9.75;;
57667;SDS011;43499;52.366;12.912;2023-02-28T04:12:23;19.13;;;10.50;;
57667;SDS011;43499;52.366;12.912;2023-02-28T04:13:24;20.30;;;9.60;;
57667;SDS011;43499;52.366;12.912;2023-02-28T04:14:25;21.38;;;10.63;;
57667;SDS011;43499;52.366;12.912;2023-02-28T04:15:27;16.88;;;9.40;;
57667;SDS011;43499;52.366;12.912;2023-02-28T04:16:28;20.38;;;10.50;;
57667;SDS011;43499;52.366;12.912;2023-02-28T04:17:30;20.38;;;11.52;;
57667;SDS011;43499;52.366;12.912;2023-02-28T04:18:31;20.23;;;10.90;;
57667;SDS011;43499;52.366;12.912;2023-02-28T04:19:32;18.83;;;10.13;;
57667;SDS011;43499;52.366;12.912;2023-02-28T04:20:33;17.52;;;10.68;;
57667;SDS011;43499;52.366;12.912;2023-02-28T04:21:36;18.65;;;11.10;;
57667;SDS011;43499;52.366;12.912;2023-02-28T04:22:39;19.00;;;11.00;;
57667;SDS011;43499;52.366;12.912;2023-02-28T04:23:40;20.58;;;10.60;;
57667;SDS011;43499;52.366;12.912;2023-02-28T04:24:41;19.20;;;10.02;;
57667;SDS011;43499;52.366;12.912;2023-02-28T04:25:42;17.45;;;9.48;;
57667;SDS011;43499;52.366;12.912;2023-02-28T04:26:45;24.35;;;11.00;;
57667;SDS011;43499;52.366;12.912;2023-02-28T04:27:47;21.73;;;10.35;;
57667;SDS011;43499;52.366;12.912;2023-02-28T04:28:48;18.83;;;10.15;;
57667;SDS011;43499;52.366;12.912;2023-02-28T04:29:49;23.52;;;9.98;;
57667;SDS011;43499;52.366;12.912;2023-02-28T04:30:55;20.65;;;10.40;;
57667;SDS011;43499;52.366;12.912;2023-02-28T04:32:00;21.02;;;10.88;;
57667;SDS011;43499;52.366;12.912;2023-02-28T04:33:02;18.80;;;9.40;;
57667;SDS011;43499;52.366;12.912;2023-02-28T04:34:03;21.25;;;10.68;;
57667;SDS011;43499;52.366;12.912;2023-02-28T04:35:05;17.83;;;11.13;;
57667;SDS011;43499;52.366;12.912;2023-02-28T04:36:07;21.33;;;10.18;;
57667;SDS011;43499;52.366;12.912;2023-02-28T04:37:09;18.60;;;10.68;;
57667;SDS011;43499;52.366;12.912;2023-02-28T04:38:10;23.05;;;10.88;;
57667;SDS011;43499;52.366;12.912;2023-02-28T04:39:11;18.73;;;10.27;;
57667;SDS011;43499;52.366;12.912;2023-02-28T04:40:12;21.85;;;11.93;;
57667;SDS011;43499;52.366;12.912;2023-02-28T04:41:14;23.05;;;10.52;;
57667;SDS011;43499;52.366;12.912;2023-02-28T04:42:15;20.45;;;10.38;;
57667;SDS011;43499;52.366;12.912;2023-02-28T04:43:16;24.60;;;11.27;;
57667;SDS011;43499;52.366;12.912;2023-02-28T04:44:17;18.92;;;10.90;;
57667;SDS011;43499;52.366;12.912;2023-02-28T04:45:18;21.55;;;11.52;;
57667;SDS011;43499;52.366;12.912;2023-02-28T04:46:19;25.30;;;9.93;;
57667;SDS011;43499;52.366;12.912;2023-02-28T04:47:21;22.25;;;11.93;;
57667;SDS011;43499;52.366;12.912;2023-02-28T04:48:23;17.45;;;11.15;;
57667;SDS011;43499;52.366;12.912;2023-02-28T04:49:25;32.47;;;12.18;;
57667;SDS011;43499;52.366;12.912;2023-02-28T04:50:26;25.98;;;12.50;;
57667;SDS011;43499;52.366;12.912;2023-02-28T04:51:27;26.92;;;11.70;;
57667;SDS011;43499;52.366;12.912;2023-02-28T04:52:28;22.73;;;10.98;;
57667;SDS011;43499;52.366;12.912;2023-02-28T04:53:29;18.40;;;10.90;;
57667;SDS011;43499;52.366;12.912;2023-02-28T04:54:30;26.25;;;11.93;;
57667;SDS011;43499;52.366;12.912;2023-02-28T04:55:31;20.23;;;11.27;;
57667;SDS011;43499;52.366;12.912;2023-02-28T04:56:33;22.60;;;11.00;;
57667;SDS011;43499;52.366;12.912;2023-02-28T04:57:34;25.02;;;11.75;;
57667;SDS011;43499;52.366;12.912;2023-02-28T04:58:35;28.90;;;11.93;;
57667;SDS011;43499;52.366;12.912;2023-02-28T04:59:36;22.20;;;10.88;;
57667;SDS011;43499;52.366;12.912;2023-02-28T05:00:37;21.23;;;11.35;;
57667;SDS011;43499;52.366;12.912;2023-02-28T05:01:38;24.50;;;13.10;;
57667;SDS011;43499;52.366;12.912;2023-02-28T05:02:39;18.00;;;10.60;;
57667;SDS011;43499;52.366;12.912;2023-02-28T05:03:40;23.42;;;11.45;;
57667;SDS011;43499;52.366;12.912;2023-02-28T05:04:41;21.15;;;10.95;;
57667;SDS011;43499;52.366;12.912;2023-02-28T05:05:42;19.63;;;10.07;;
57667;SDS011;43499;52.366;12.912;2023-02-28T05:06:44;22.27;;;11.88;;
57667;SDS011;43499;52.366;12.912;2023-02-28T05:07:45;25.98;;;12.23;;
57667;SDS011;43499;52.366;12.912;2023-02-28T05:13:44;17.67;;;10.32;;
57667;SDS011;43499;52.366;12.912;2023-02-28T05:15:39;21.08;;;10.73;;
57667;SDS011;43499;52.366;12.912;2023-02-28T05:17:19;19.83;;;10.63;;
57667;SDS011;43499;52.366;12.912;2023-02-28T05:18:38;23.40;;;12.15;;
57667;SDS011;43499;52.366;12.912;2023-02-28T05:21:04;19.27;;;10.27;;
57667;SDS011;43499;52.366;12.912;2023-02-28T05:23:26;19.13;;;10.50;;
57667;SDS011;43499;52.366;12.912;2023-02-28T05:27:31;30.02;;;11.38;;
57667;SDS011;43499;52.366;12.912;2023-02-28T05:31:07;25.33;;;12.23;;
57667;SDS011;43499;52.366;12.912;2023-02-28T05:32:48;21.85;;;10.93;;
57667;SDS011;43499;52.366;12.912;2023-02-28T05:34:53;24.45;;;12.43;;
57667;SDS011;43499;52.366;12.912;2023-02-28T05:42:23;25.15;;;11.45;;
57667;SDS011;43499;52.366;12.912;2023-02-28T05:44:07;25.55;;;14.30;;
57667;SDS011;43499;52.366;12.912;2023-02-28T05:46:08;34.35;;;15.40;;
57667;SDS011;43499;52.366;12.912;2023-02-28T05:47:48;31.70;;;13.82;;
57667;SDS011;43499;52.366;12.912;2023-02-28T05:50:08;36.28;;;16.00;;
57667;SDS011;43499;52.366;12.912;2023-02-28T05:52:22;31.30;;;15.25;;
57667;SDS011;43499;52.366;12.912;2023-02-28T05:53:57;31.42;;;14.25;;
57667;SDS011;43499;52.366;12.912;2023-02-28T05:55:52;35.40;;;15.40;;
57667;SDS011;43499;52.366;12.912;2023-02-28T05:59:49;39.22;;;16.15;;
57667;SDS011;43499;52.366;12.912;2023-02-28T06:02:15;40.50;;;17.95;;
57667;SDS011;43499;52.366;12.912;2023-02-28T06:04:39;40.83;;;15.73;;
57667;SDS011;43499;52.366;12.912;2023-02-28T06:08:56;38.67;;;18.42;;
57667;SDS011;43499;52.366;12.912;2023-02-28T06:12:34;45.33;;;19.73;;
57667;SDS011;43499;52.366;12.912;2023-02-28T06:16:28;54.30;;;21.92;;
57667;SDS011;43499;52.366;12.912;2023-02-28T06:19:54;65.80;;;23.90;;
57667;SDS011;43499;52.366;12.912;2023-02-28T06:28:57;61.75;;;22.95;;
57667;SDS011;43499;52.366;12.912;2023-02-28T06:30:23;59.50;;;22.17;;
57667;SDS011;43499;52.366;12.912;2023-02-28T06:31:46;58.22;;;24.25;;
57667;SDS011;43499;52.366;12.912;2023-02-28T06:33:05;53.47;;;22.73;;
57667;SDS011;43499;52.366;12.912;2023-02-28T06:34:25;61.72;;;24.95;;
57667;SDS011;43499;52.366;12.912;2023-02-28T06:35:36;57.65;;;24.85;;
57667;SDS011;43499;52.366;12.912;2023-02-28T06:37:42;59.08;;;24.35;;
57667;SDS011;43499;52.366;12.912;2023-02-28T06:38:46;47.42;;;21.33;;
57667;SDS011;43499;52.366;12.912;2023-02-28T06:39:55;53.53;;;23.30;;
57667;SDS011;43499;52.366;12.912;2023-02-28T06:41:44;56.97;;;23.20;;
57667;SDS011;43499;52.366;12.912;2023-02-28T06:42:57;61.58;;;23.27;;
57667;SDS011;43499;52.366;12.912;2023-02-28T06:44:21;47.80;;;20.35;;
57667;SDS011;43499;52.366;12.912;2023-02-28T06:45:58;52.47;;;21.80;;
57667;SDS011;43499;52.366;12.912;2023-02-28T06:47:13;45.03;;;20.30;;
57667;SDS011;43499;52.366;12.912;2023-02-28T06:49:03;45.15;;;21.02;;
57667;SDS011;43499;52.366;12.912;2023-02-28T06:52:25;34.05;;;17.70;;
57667;SDS011;43499;52.366;12.912;2023-02-28T06:53:42;45.63;;;20.48;;
57667;SDS011;43499;52.366;12.912;2023-02-28T06:56:57;44.13;;;18.42;;
57667;SDS011;43499;52.366;12.912;2023-02-28T07:14:43;48.20;;;21.73;;
57667;SDS011;43499;52.366;12.912;2023-02-28T07:18:48;46.10;;;19.58;;
57667;SDS011;43499;52.366;12.912;2023-02-28T07:21:36;40.05;;;19.02;;
57667;SDS011;43499;52.366;12.912;2023-02-28T07:23:53;48.85;;;19.02;;
57667;SDS011;43499;52.366;12.912;2023-02-28T07:25:50;40.42;;;19.42;;
57667;SDS011;43499;52.366;12.912;2023-02-28T07:27:59;48.97;;;20.60;;
57667;SDS011;43499;52.366;12.912;2023-02-28T07:29:06;42.50;;;21.15;;
57667;SDS011;43499;52.366;12.912;2023-02-28T07:32:57;44.92;;;19.58;;
57667;SDS011;43499;52.366;12.912;2023-02-28T07:37:53;29.75;;;15.10;;
57667;SDS011;43499;52.366;12.912;2023-02-28T07:41:31;33.40;;;17.80;;
57667;SDS011;43499;52.366;12.912;2023-02-28T07:43:08;36.28;;;17.50;;
57667;SDS011;43499;52.366;12.912;2023-02-28T07:47:11;29.10;;;15.63;;
57667;SDS011;43499;52.366;12.912;2023-02-28T07:50:00;29.38;;;14.82;;
57667;SDS011;43499;52.366;12.912;2023-02-28T07:51:01;25.65;;;13.40;;
57667;SDS011;43499;52.366;12.912;2023-02-28T07:52:03;24.27;;;13.60;;
57667;SDS011;43499;52.366;12.912;2023-02-28T07:53:08;26.98;;;13.90;;
57667;SDS011;43499;52.366;12.912;2023-02-28T07:54:09;27.98;;;13.55;;
57667;SDS011;43499;52.366;12.912;2023-02-28T07:55:11;20.58;;;11.80;;
57667;SDS011;43499;52.366;12.912;2023-02-28T07:56:12;27.33;;;12.98;;
57667;SDS011;43499;52.366;12.912;2023-02-28T07:57:13;26.50;;;12.85;;
57667;SDS011;43499;52.366;12.912;2023-02-28T07:58:14;25.02;;;13.02;;
57667;SDS011;43499;52.366;12.912;2023-02-28T07:59:18;19.48;;;11.13;;
57667;SDS011;43499;52.366;12.912;2023-02-28T08:00:19;25.52;;;12.20;;
57667;SDS011;43499;52.366;12.912;2023-02-28T08:01:21;27.13;;;14.10;;
57667;SDS011;43499;52.366;12.912;2023-02-28T08:02:22;22.90;;;11.90;;
57667;SDS011;43499;52.366;12.912;2023-02-28T08:03:24;21.63;;;11.57;;
57667;SDS011;43499;52.366;12.912;2023-02-28T08:04:25;22.95;;;12.30;;
57667;SDS011;43499;52.366;12.912;2023-02-28T08:05:27;21.92;;;11.85;;
57667;SDS011;43499;52.366;12.912;2023-02-28T08:06:28;22.52;;;11.52;;
57667;SDS011;43499;52.366;12.912;2023-02-28T08:07:29;21.23;;;11.07;;
57667;SDS011;43499;52.366;12.912;2023-02-28T08:08:30;22.45;;;12.65;;
57667;SDS011;43499;52.366;12.912;2023-02-28T08:09:32;25.70;;;11.73;;
57667;SDS011;43499;52.366;12.912;2023-02-28T08:10:33;20.23;;;11.73;;
57667;SDS011;43499;52.366;12.912;2023-02-28T08:11:34;25.45;;;12.15;;
57667;SDS011;43499;52.366;12.912;2023-02-28T08:12:35;24.52;;;12.82;;
57667;SDS011;43499;52.366;12.912;2023-02-28T08:13:36;24.58;;;13.30;;
57667;SDS011;43499;52.366;12.912;2023-02-28T08:14:38;23.27;;;11.60;;
57667;SDS011;43499;52.366;12.912;2023-02-28T08:15:41;18.65;;;10.40;;
57667;SDS011;43499;52.366;12.912;2023-02-28T08:16:43;19.73;;;11.68;;
57667;SDS011;43499;52.366;12.912;2023-02-28T08:17:44;19.58;;;10.60;;